Time;durP1;ratioP1;P1;durP2;ratioP2;P2;SDS_P1;SDS_P2;PMS_P1;PMS_P2;Temp;Humidity;BMP_temperature;BMP_pressure;BME280_temperature;BME280_humidity;BME280_pressure;Samples;Min_cycle;Max_cycle;Signal;HPM_P1;HPM_P2
2020/12/30 00:01:05;;;;;;;;;;;;;;;;;;5113992;28;19931;-70
2020/12/30 00:03:31;;;;;;;;;;;;;;;;;;5095612;28;19911;-70
2020/12/30 00:05:56;;;;;;;;;;;;;;;;;;5113655;28;19954;-68
2020/12/30 00:08:22;;;;;;;;;;;;;;;;;;5111666;28;20011;-68
2020/12/30 00:10:48;;;;;;;;;;;;;;;;;;5101772;28;20347;-69
2020/12/30 00:13:14;;;;;;;;;;;;;;;;;;5112245;28;20386;-70
2020/12/30 00:15:40;;;;;;;;;;;;;;;;;;5113742;28;19908;-70
2020/12/30 00:18:06;;;;;;;;;;;;;;;;;;5094958;28;19918;-70
2020/12/30 00:20:32;;;;;;;;;;;;;;;;;;5095250;28;19998;-70
2020/12/30 00:22:58;;;;;;;;;;;;;;;;;;5095154;28;20458;-70
2020/12/30 00:25:26;;;;;;;;;;;;;;;;;;5094935;28;19908;-70
2020/12/30 00:27:51;;;;;;;;;;;;;;;;;;5094762;28;19912;-70
2020/12/30 00:30:17;;;;;;;;;;;;;;;;;;5113208;28;20019;-69
2020/12/30 00:32:43;;;;;;;;;;;;;;;;;;5113480;28;20003;-69
2020/12/30 00:35:09;;;;;;;;;;;;;;;;;;5113371;28;19908;-70
2020/12/30 00:37:35;;;;;;;;;;;;;;;;;;5094860;28;20016;-69
2020/12/30 00:40:01;;;;;;;;;;;;;;;;;;5105683;28;20004;-70
2020/12/30 00:42:27;;;;;;;;;;;;;;;;;;5102265;28;20061;-69
2020/12/30 00:44:53;;;;;;;;;;;;;;;;;;5104303;28;20398;-69
2020/12/30 00:47:19;;;;;;;;;;;;;;;;;;5094640;28;20002;-69
2020/12/30 00:49:45;;;;;;;;;;;;;;;;;;5112659;28;19912;-69
2020/12/30 00:52:10;;;;;;;;;;;;;;;;;;5113007;28;19946;-69
2020/12/30 00:54:36;;;;;;;;;;;;;;;;;;5112976;28;19951;-69
2020/12/30 00:57:02;;;;;;;;;;;;;;;;;;5113009;28;20010;-70
2020/12/30 00:59:28;;;;;;;;;;;;;;;;;;5101856;28;19912;-70
2020/12/30 01:01:54;;;;;;;;;;;;;;;;;;5082468;28;20317;-70
2020/12/30 01:04:20;;;;;;;;;;;;;;;;;;5091698;28;19915;-69
2020/12/30 01:06:46;;;;;;;;;;;;;;;;;;5092354;28;19947;-69
2020/12/30 01:09:12;;;;;;;;;;;;;;;;;;5092178;28;19912;-70
2020/12/30 01:11:38;;;;;;;;;;;;;;;;;;5092323;28;19951;-70
2020/12/30 01:14:04;;;;;;;;;;;;;;;;;;5083990;28;20026;-70
2020/12/30 01:16:29;;;;;;;;;;;;;;;;;;5112635;28;19951;-69
2020/12/30 01:18:55;;;;;;;;;;;;;;;;;;5112132;28;19947;-69
2020/12/30 01:21:21;;;;;;;;;;;;;;;;;;5112439;28;19908;-69
2020/12/30 01:23:47;;;;;;;;;;;;;;;;;;5112429;28;19973;-69
2020/12/30 01:26:13;;;;;;;;;;;;;;;;;;5112439;28;19908;-70
2020/12/30 01:28:39;;;;;;;;;;;;;;;;;;5093081;28;19969;-69
2020/12/30 01:31:05;;;;;;;;;;;;;;;;;;5112633;28;20512;-69
2020/12/30 01:33:31;;;;;;;;;;;;;;;;;;5093783;28;19953;-69
2020/12/30 01:35:57;;;;;;;;;;;;;;;;;;5112349;28;19908;-69
2020/12/30 01:38:23;;;;;;;;;;;;;;;;;;5111718;28;19908;-70
2020/12/30 01:40:48;;;;;;;;;;;;;;;;;;5112269;28;19911;-69
2020/12/30 01:43:14;;;;;;;;;;;;;;;;;;5107924;28;19908;-69
2020/12/30 01:45:40;;;;;;;;;;;;;;;;;;5106211;28;19908;-69
2020/12/30 01:48:06;;;;;;;;;;;;;;;;;;5111707;28;19918;-69
2020/12/30 01:50:32;;;;;;;;;;;;;;;;;;5112021;28;19953;-70
2020/12/30 01:52:58;;;;;;;;;;;;;;;;;;5112049;28;20367;-70
2020/12/30 01:55:24;;;;;;;;;;;;;;;;;;5111957;28;19907;-69
2020/12/30 01:57:50;;;;;;;;;;;;;;;;;;5111332;28;19908;-70
2020/12/30 02:00:16;;;;;;;;;;;;;;;;;;5111800;28;19919;-69
2020/12/30 02:02:42;;;;;;;;;;;;;;;;;;5112133;28;19977;-70
2020/12/30 02:05:08;;;;;;;;;;;;;;;;;;5112175;28;19960;-70
2020/12/30 02:07:33;;;;;;;;;;;;;;;;;;5111554;28;20325;-69
2020/12/30 02:09:59;;;;;;;;;;;;;;;;;;5111655;28;20386;-70
2020/12/30 02:12:27;;;;;;;;;;;;;;;;;;5091608;28;19907;-69
2020/12/30 02:14:53;;;;;;;;;;;;;;;;;;5085007;28;19912;-68
2020/12/30 02:17:19;;;;;;;;;;;;;;;;;;5114928;28;20385;-69
2020/12/30 02:19:48;;;;;;;;;;;;;;;;;;5115874;28;19908;-68
2020/12/30 02:22:13;;;;;;;;;;;;;;;;;;5116265;28;20014;-69
2020/12/30 02:24:39;;;;;;;;;;;;;;;;;;5116008;28;19962;-69
2020/12/30 02:27:05;;;;;;;;;;;;;;;;;;5115580;28;20014;-69
2020/12/30 02:29:31;;;;;;;;;;;;;;;;;;5115230;28;19956;-69
2020/12/30 02:31:57;;;;;;;;;;;;;;;;;;5115775;28;19960;-68
2020/12/30 02:34:23;;;;;;;;;;;;;;;;;;5115718;28;19962;-69
2020/12/30 02:36:49;;;;;;;;;;;;;;;;;;5115849;28;20425;-69
2020/12/30 02:39:15;;;;;;;;;;;;;;;;;;5115116;28;19928;-69
2020/12/30 02:41:41;;;;;;;;;;;;;;;;;;5115502;28;19995;-69
2020/12/30 02:44:07;;;;;;;;;;;;;;;;;;5087017;28;19908;-69
2020/12/30 02:46:32;;;;;;;;;;;;;;;;;;5115566;28;20363;-69
2020/12/30 02:48:58;;;;;;;;;;;;;;;;;;5115129;28;19951;-69
2020/12/30 02:51:24;;;;;;;;;;;;;;;;;;5115588;28;20430;-69
2020/12/30 02:53:50;;;;;;;;;;;;;;;;;;5115479;28;19994;-69
2020/12/30 02:56:16;;;;;;;;;;;;;;;;;;5115598;28;19911;-69
2020/12/30 02:58:43;;;;;;;;;;;;;;;;;;5113423;28;19962;-69
2020/12/30 03:01:09;;;;;;;;;;;;;;;;;;5094102;28;19991;-69
2020/12/30 03:03:35;;;;;;;;;;;;;;;;;;5095090;28;20004;-68
2020/12/30 03:06:00;;;;;;;;;;;;;;;;;;5095237;28;19908;-68
2020/12/30 03:08:27;;;;;;;;;;;;;;;;;;5094884;28;20328;-68
2020/12/30 03:10:53;;;;;;;;;;;;;;;;;;5095329;28;19908;-68
2020/12/30 03:13:19;;;;;;;;;;;;;;;;;;5102570;28;20389;-68
2020/12/30 03:15:45;;;;;;;;;;;;;;;;;;5091627;28;19931;-68
2020/12/30 03:18:11;;;;;;;;;;;;;;;;;;5114847;28;19908;-68
2020/12/30 03:20:37;;;;;;;;;;;;;;;;;;5115072;28;19915;-68
2020/12/30 03:23:03;;;;;;;;;;;;;;;;;;5096524;28;19956;-69
2020/12/30 03:25:29;;;;;;;;;;;;;;;;;;5114875;28;19912;-68
2020/12/30 03:27:56;;;;;;;;;;;;;;;;;;5113306;28;19955;-68
2020/12/30 03:30:22;;;;;;;;;;;;;;;;;;5114847;28;19907;-68
2020/12/30 03:32:48;;;;;;;;;;;;;;;;;;5114968;28;20286;-68
2020/12/30 03:35:14;;;;;;;;;;;;;;;;;;5096584;28;19907;-68
2020/12/30 03:37:40;;;;;;;;;;;;;;;;;;5114390;28;19908;-69
2020/12/30 03:40:05;;;;;;;;;;;;;;;;;;5114222;28;19966;-68
2020/12/30 03:42:31;;;;;;;;;;;;;;;;;;5094608;28;20413;-68
2020/12/30 03:44:57;;;;;;;;;;;;;;;;;;5105530;28;20427;-68
2020/12/30 03:47:24;;;;;;;;;;;;;;;;;;5114334;28;20049;-68
2020/12/30 03:49:50;;;;;;;;;;;;;;;;;;5113942;28;20011;-68
2020/12/30 03:52:16;;;;;;;;;;;;;;;;;;5095924;28;20397;-68
2020/12/30 03:54:42;;;;;;;;;;;;;;;;;;5113990;28;19995;-68
2020/12/30 03:57:08;;;;;;;;;;;;;;;;;;5114237;28;19958;-68
2020/12/30 03:59:34;;;;;;;;;;;;;;;;;;5113476;28;20455;-68
2020/12/30 04:02:00;;;;;;;;;;;;;;;;;;5114308;28;19914;-68
2020/12/30 04:04:26;;;;;;;;;;;;;;;;;;5067694;28;19918;-68
2020/12/30 04:06:51;;;;;;;;;;;;;;;;;;5092110;28;20413;-69
2020/12/30 04:09:17;;;;;;;;;;;;;;;;;;5104809;28;19918;-68
2020/12/30 04:11:43;;;;;;;;;;;;;;;;;;5095547;28;19908;-68
2020/12/30 04:14:09;;;;;;;;;;;;;;;;;;5113883;28;19908;-68
2020/12/30 04:16:35;;;;;;;;;;;;;;;;;;5113865;28;19939;-69
2020/12/30 04:19:01;;;;;;;;;;;;;;;;;;5113471;28;20298;-69
2020/12/30 04:21:27;;;;;;;;;;;;;;;;;;5113284;28;19908;-67
2020/12/30 04:23:53;;;;;;;;;;;;;;;;;;5113607;28;19912;-68
2020/12/30 04:26:19;;;;;;;;;;;;;;;;;;5113594;28;19908;-68
2020/12/30 04:28:45;;;;;;;;;;;;;;;;;;5113248;28;20012;-68
2020/12/30 04:31:11;;;;;;;;;;;;;;;;;;5113508;28;20465;-68
2020/12/30 04:33:37;;;;;;;;;;;;;;;;;;5095224;28;20268;-68
2020/12/30 04:36:03;;;;;;;;;;;;;;;;;;5092982;28;19986;-70
2020/12/30 04:38:29;;;;;;;;;;;;;;;;;;5104020;28;19912;-69
2020/12/30 04:40:55;;;;;;;;;;;;;;;;;;5113528;28;19986;-69
2020/12/30 04:43:21;;;;;;;;;;;;;;;;;;5113287;28;20380;-71
2020/12/30 04:45:47;;;;;;;;;;;;;;;;;;5094799;28;20302;-68
2020/12/30 04:48:12;;;;;;;;;;;;;;;;;;5094706;28;19954;-68
2020/12/30 04:50:38;;;;;;;;;;;;;;;;;;5113000;28;19954;-70
2020/12/30 04:53:04;;;;;;;;;;;;;;;;;;5112648;28;19969;-69
2020/12/30 04:55:30;;;;;;;;;;;;;;;;;;5112962;28;20008;-68
2020/12/30 04:57:57;;;;;;;;;;;;;;;;;;5092655;28;20389;-69
2020/12/30 05:00:23;;;;;;;;;;;;;;;;;;5092181;28;19908;-69
2020/12/30 05:02:49;;;;;;;;;;;;;;;;;;5092567;28;19915;-68
2020/12/30 05:05:15;;;;;;;;;;;;;;;;;;5092375;28;20287;-69
2020/12/30 05:07:41;;;;;;;;;;;;;;;;;;5081880;28;19908;-69
2020/12/30 05:10:07;;;;;;;;;;;;;;;;;;5090720;28;19951;-68
2020/12/30 05:12:33;;;;;;;;;;;;;;;;;;5099148;28;19912;-68
2020/12/30 05:14:59;;;;;;;;;;;;;;;;;;5092444;28;19945;-68
2020/12/30 05:17:25;;;;;;;;;;;;;;;;;;5092507;28;20363;-68
2020/12/30 05:19:53;;;;;;;;;;;;;;;;;;5092146;28;20307;-68
2020/12/30 05:22:19;;;;;;;;;;;;;;;;;;5092280;28;20309;-67
2020/12/30 05:24:45;;;;;;;;;;;;;;;;;;5074059;28;19912;-68
2020/12/30 05:27:11;;;;;;;;;;;;;;;;;;5091828;28;19912;-70
2020/12/30 05:29:37;;;;;;;;;;;;;;;;;;5091787;28;19943;-70
2020/12/30 05:32:03;;;;;;;;;;;;;;;;;;5092074;28;20001;-69
2020/12/30 05:34:30;;;;;;;;;;;;;;;;;;5091989;28;19908;-70
2020/12/30 05:36:56;;;;;;;;;;;;;;;;;;5074148;28;19915;-70
2020/12/30 05:39:22;;;;;;;;;;;;;;;;;;5091843;28;20363;-70
2020/12/30 05:41:48;;;;;;;;;;;;;;;;;;5099903;28;19915;-70
2020/12/30 05:44:14;;;;;;;;;;;;;;;;;;5110827;28;19943;-71
2020/12/30 05:46:40;;;;;;;;;;;;;;;;;;5107033;28;19915;-71
2020/12/30 05:49:06;;;;;;;;;;;;;;;;;;5100459;28;19962;-71
2020/12/30 05:51:31;;;;;;;;;;;;;;;;;;5111554;28;19946;-70
2020/12/30 05:53:57;;;;;;;;;;;;;;;;;;5121479;22;19919;-68
2020/12/30 05:56:23;;;;;;;;;;;;;;;;;;5060809;28;19947;-70
2020/12/30 05:58:49;;;;;;;;;;;;;;;;;;5080024;28;20319;-71
2020/12/30 06:01:15;;;;;;;;;;;;;;;;;;5091533;28;19908;-71
2020/12/30 06:03:41;;;;;;;;;;;;;;;;;;5091482;28;20007;-71
2020/12/30 06:06:07;;;;;;;;;;;;;;;;;;5070608;28;20512;-69
2020/12/30 06:08:33;;;;;;;;;;;;;;;;;;5082488;28;19922;-71
2020/12/30 06:10:59;;;;;;;;;;;;;;;;;;5091323;28;19965;-70
2020/12/30 06:13:24;;;;;;;;;;;;;;;;;;5073579;28;20598;-71
2020/12/30 06:15:50;;;;;;;;;;;;;;;;;;5073070;28;19994;-71
2020/12/30 06:18:16;;;;;;;;;;;;;;;;;;5091212;28;20016;-70
2020/12/30 06:20:42;;;;;;;;;;;;;;;;;;5073072;28;19994;-70
2020/12/30 06:23:08;;;;;;;;;;;;;;;;;;5090910;28;19908;-70
2020/12/30 06:25:34;;;;;;;;;;;;;;;;;;5091171;28;19912;-70
2020/12/30 06:28:00;;;;;;;;;;;;;;;;;;5091226;28;19908;-70
2020/12/30 06:30:26;;;;;;;;;;;;;;;;;;5091511;28;20411;-71
2020/12/30 06:32:52;;;;;;;;;;;;;;;;;;5091441;28;19912;-70
2020/12/30 06:35:17;;;;;;;;;;;;;;;;;;5091032;28;19908;-70
2020/12/30 06:37:43;;;;;;;;;;;;;;;;;;5083093;28;19916;-70
2020/12/30 06:40:09;;;;;;;;;;;;;;;;;;5082314;28;19948;-70
2020/12/30 06:42:35;;;;;;;;;;;;;;;;;;5082773;28;20007;-71
2020/12/30 06:45:01;;;;;;;;;;;;;;;;;;5091163;28;19951;-72
2020/12/30 06:47:27;;;;;;;;;;;;;;;;;;5090979;28;20343;-69
2020/12/30 06:49:53;;;;;;;;;;;;;;;;;;5072859;28;19955;-70
2020/12/30 06:52:19;;;;;;;;;;;;;;;;;;5090958;28;19998;-67
2020/12/30 06:54:45;;;;;;;;;;;;;;;;;;5090968;28;19987;-71
2020/12/30 06:57:11;;;;;;;;;;;;;;;;;;5072611;28;19948;-71
2020/12/30 06:59:37;;;;;;;;;;;;;;;;;;5077123;28;19948;-70
2020/12/30 07:02:03;;;;;;;;;;;;;;;;;;5054407;28;19955;-72
2020/12/30 07:04:28;;;;;;;;;;;;;;;;;;5071590;28;20600;-71
2020/12/30 07:06:54;;;;;;;;;;;;;;;;;;5069144;28;19912;-71
2020/12/30 07:09:20;;;;;;;;;;;;;;;;;;5090017;28;19934;-71
2020/12/30 07:11:46;;;;;;;;;;;;;;;;;;5098655;28;20533;-67
2020/12/30 07:14:12;;;;;;;;;;;;;;;;;;5066683;28;19954;-70
2020/12/30 07:16:38;;;;;;;;;;;;;;;;;;5064373;28;19963;-71
2020/12/30 07:19:04;;;;;;;;;;;;;;;;;;5047498;28;19987;-70
2020/12/30 07:21:30;;;;;;;;;;;;;;;;;;5056149;28;19939;-70
2020/12/30 07:23:56;;;;;;;;;;;;;;;;;;5074269;28;19959;-70
2020/12/30 07:26:22;;;;;;;;;;;;;;;;;;5074042;28;19999;-70
2020/12/30 07:28:48;;;;;;;;;;;;;;;;;;5074085;28;20408;-70
2020/12/30 07:31:14;;;;;;;;;;;;;;;;;;5074082;28;20011;-70
2020/12/30 07:33:40;;;;;;;;;;;;;;;;;;5073926;28;19916;-71
2020/12/30 07:36:06;;;;;;;;;;;;;;;;;;5056579;28;19916;-69
2020/12/30 07:38:32;;;;;;;;;;;;;;;;;;5082386;28;19949;-71
2020/12/30 07:40:58;;;;;;;;;;;;;;;;;;5068247;28;19908;-70
2020/12/30 07:43:24;;;;;;;;;;;;;;;;;;5073509;28;20411;-70
2020/12/30 07:45:50;;;;;;;;;;;;;;;;;;5073613;28;19995;-70
2020/12/30 07:48:16;;;;;;;;;;;;;;;;;;5073269;28;20020;-70
2020/12/30 07:50:42;;;;;;;;;;;;;;;;;;5055843;28;19913;-71
2020/12/30 07:53:07;;;;;;;;;;;;;;;;;;5073302;28;20392;-70
2020/12/30 07:55:34;;;;;;;;;;;;;;;;;;5073351;28;19920;-72
2020/12/30 07:58:00;;;;;;;;;;;;;;;;;;5074721;28;20329;-68
2020/12/30 08:00:26;;;;;;;;;;;;;;;;;;5079439;28;19954;-70
2020/12/30 08:02:52;;;;;;;;;;;;;;;;;;5073078;28;19913;-71
2020/12/30 08:05:18;;;;;;;;;;;;;;;;;;5073476;28;19944;-70
2020/12/30 08:07:44;;;;;;;;;;;;;;;;;;5054904;28;19943;-70
2020/12/30 08:10:10;;;;;;;;;;;;;;;;;;5073024;28;20003;-71
2020/12/30 08:12:36;;;;;;;;;;;;;;;;;;5070877;28;19956;-68
2020/12/30 08:15:02;;;;;;;;;;;;;;;;;;5080896;28;19909;-71
2020/12/30 08:17:27;;;;;;;;;;;;;;;;;;5054765;28;19955;-70
2020/12/30 08:19:53;;;;;;;;;;;;;;;;;;5055223;28;20003;-71
2020/12/30 08:22:19;;;;;;;;;;;;;;;;;;5075811;28;20449;-70
2020/12/30 08:24:45;;;;;;;;;;;;;;;;;;5072938;28;19944;-71
2020/12/30 08:27:11;;;;;;;;;;;;;;;;;;5052709;28;19924;-71
2020/12/30 08:29:37;;;;;;;;;;;;;;;;;;5051579;28;19963;-71
2020/12/30 08:32:03;;;;;;;;;;;;;;;;;;5052615;28;19919;-70
2020/12/30 08:34:29;;;;;;;;;;;;;;;;;;5034938;28;19909;-70
2020/12/30 08:36:55;;;;;;;;;;;;;;;;;;5052283;28;20384;-70
2020/12/30 08:39:21;;;;;;;;;;;;;;;;;;5065279;28;20412;-70
2020/12/30 08:41:47;;;;;;;;;;;;;;;;;;5074770;28;19913;-72
2020/12/30 08:44:13;;;;;;;;;;;;;;;;;;5074639;28;19908;-70
2020/12/30 08:46:40;;;;;;;;;;;;;;;;;;5074296;28;20012;-71
2020/12/30 08:49:06;;;;;;;;;;;;;;;;;;5092483;28;20006;-69
2020/12/30 08:51:33;;;;;;;;;;;;;;;;;;5072901;28;20003;-70
2020/12/30 08:53:59;;;;;;;;;;;;;;;;;;5062009;28;20573;-71
2020/12/30 08:56:25;;;;;;;;;;;;;;;;;;5048010;28;20004;-70
2020/12/30 08:58:51;;;;;;;;;;;;;;;;;;5052626;28;19909;-70
2020/12/30 09:01:17;;;;;;;;;;;;;;;;;;5034175;28;19915;-70
2020/12/30 09:03:43;;;;;;;;;;;;;;;;;;5034326;28;19991;-70
2020/12/30 09:06:09;;;;;;;;;;;;;;;;;;5052085;28;19908;-69
2020/12/30 09:08:35;;;;;;;;;;;;;;;;;;5082490;28;19918;-71
2020/12/30 09:11:01;;;;;;;;;;;;;;;;;;5074916;28;19915;-71
2020/12/30 09:13:27;;;;;;;;;;;;;;;;;;5072128;28;19908;-71
2020/12/30 09:15:57;;;;;;;;;;;;;;;;;;5071835;28;20443;-70
2020/12/30 09:18:23;;;;;;;;;;;;;;;;;;5071733;28;19916;-70
2020/12/30 09:20:48;;;;;;;;;;;;;;;;;;5071879;28;20292;-71
2020/12/30 09:23:14;;;;;;;;;;;;;;;;;;5053586;28;20008;-70
2020/12/30 09:25:41;;;;;;;;;;;;;;;;;;5052981;28;19948;-70
2020/12/30 09:28:07;;;;;;;;;;;;;;;;;;5053469;28;20283;-69
2020/12/30 09:30:32;;;;;;;;;;;;;;;;;;5071385;28;20003;-70
2020/12/30 09:32:58;;;;;;;;;;;;;;;;;;5053680;28;19908;-70
2020/12/30 09:35:24;;;;;;;;;;;;;;;;;;5071509;28;20015;-70
2020/12/30 09:37:50;;;;;;;;;;;;;;;;;;5078341;28;19908;-70
2020/12/30 09:40:16;;;;;;;;;;;;;;;;;;5083514;28;20371;-71
2020/12/30 09:42:42;;;;;;;;;;;;;;;;;;5061175;28;19956;-70
2020/12/30 09:45:08;;;;;;;;;;;;;;;;;;5065741;28;19909;-70
2020/12/30 09:47:34;;;;;;;;;;;;;;;;;;5069856;28;19935;-69
2020/12/30 09:50:00;;;;;;;;;;;;;;;;;;5096299;28;19912;-69
2020/12/30 09:52:26;;;;;;;;;;;;;;;;;;5091182;28;20274;-69
2020/12/30 09:54:52;;;;;;;;;;;;;;;;;;5091197;28;20312;-70
2020/12/30 09:57:18;;;;;;;;;;;;;;;;;;5091373;28;19916;-69
2020/12/30 09:59:43;;;;;;;;;;;;;;;;;;5073303;28;20020;-69
2020/12/30 10:02:09;;;;;;;;;;;;;;;;;;5072637;28;19908;-71
2020/12/30 10:04:35;;;;;;;;;;;;;;;;;;5091303;28;19908;-69
2020/12/30 10:07:01;;;;;;;;;;;;;;;;;;5073381;28;19957;-70
2020/12/30 10:09:27;;;;;;;;;;;;;;;;;;5082959;28;19948;-70
2020/12/30 10:11:53;;;;;;;;;;;;;;;;;;5086790;28;19916;-69
2020/12/30 10:14:20;;;;;;;;;;;;;;;;;;5073033;28;19912;-70
2020/12/30 10:16:46;;;;;;;;;;;;;;;;;;5091561;28;19916;-71
2020/12/30 10:19:12;;;;;;;;;;;;;;;;;;5091059;28;19931;-70
2020/12/30 10:21:38;;;;;;;;;;;;;;;;;;5072997;28;20363;-69
2020/12/30 10:24:04;;;;;;;;;;;;;;;;;;5072970;28;19963;-70
2020/12/30 10:26:30;;;;;;;;;;;;;;;;;;5072663;28;19939;-70
2020/12/30 10:28:55;;;;;;;;;;;;;;;;;;5091312;28;20452;-69
2020/12/30 10:31:21;;;;;;;;;;;;;;;;;;5073279;28;20049;-69
2020/12/30 10:33:49;;;;;;;;;;;;;;;;;;5091389;28;19991;-69
2020/12/30 10:36:15;;;;;;;;;;;;;;;;;;5091396;28;19953;-70
2020/12/30 10:38:41;;;;;;;;;;;;;;;;;;5091557;28;19994;-69
2020/12/30 10:41:07;;;;;;;;;;;;;;;;;;5086484;28;19916;-69
2020/12/30 10:43:33;;;;;;;;;;;;;;;;;;5074363;28;19962;-68
2020/12/30 10:45:59;;;;;;;;;;;;;;;;;;5073663;28;20005;-68
2020/12/30 10:48:25;;;;;;;;;;;;;;;;;;5075171;28;19915;-69
2020/12/30 10:50:51;;;;;;;;;;;;;;;;;;5074717;28;19970;-67
2020/12/30 10:53:17;;;;;;;;;;;;;;;;;;5073799;28;19948;-68
2020/12/30 10:55:43;;;;;;;;;;;;;;;;;;5092857;28;20415;-68
2020/12/30 10:58:09;;;;;;;;;;;;;;;;;;5092612;28;19980;-70
2020/12/30 11:00:34;;;;;;;;;;;;;;;;;;5079997;28;19960;-68
2020/12/30 11:03:00;;;;;;;;;;;;;;;;;;5074039;28;19932;-69
2020/12/30 11:05:26;;;;;;;;;;;;;;;;;;5074506;28;19970;-70
2020/12/30 11:07:52;;;;;;;;;;;;;;;;;;5055946;28;19909;-69
2020/12/30 11:10:18;;;;;;;;;;;;;;;;;;5074174;28;20364;-69
2020/12/30 11:12:44;;;;;;;;;;;;;;;;;;5074227;28;19939;-69
2020/12/30 11:15:10;;;;;;;;;;;;;;;;;;5075034;28;20289;-69
2020/12/30 11:17:36;;;;;;;;;;;;;;;;;;5073605;28;20330;-70
2020/12/30 11:20:02;;;;;;;;;;;;;;;;;;5073845;28;19947;-68
2020/12/30 11:22:29;;;;;;;;;;;;;;;;;;5055982;28;20384;-70
2020/12/30 11:24:55;;;;;;;;;;;;;;;;;;5073758;28;20390;-69
2020/12/30 11:27:21;;;;;;;;;;;;;;;;;;5073456;28;19916;-69
2020/12/30 11:29:47;;;;;;;;;;;;;;;;;;5073594;28;19912;-69
2020/12/30 11:32:13;;;;;;;;;;;;;;;;;;5056128;28;20002;-69
2020/12/30 11:34:39;;;;;;;;;;;;;;;;;;5073725;28;19909;-67
2020/12/30 11:37:05;;;;;;;;;;;;;;;;;;5069838;28;19954;-70
2020/12/30 11:39:31;;;;;;;;;;;;;;;;;;5071203;28;20363;-68
2020/12/30 11:41:56;;;;;;;;;;;;;;;;;;5073282;28;20015;-68
2020/12/30 11:44:22;;;;;;;;;;;;;;;;;;5072604;28;19915;-69
2020/12/30 11:46:48;;;;;;;;;;;;;;;;;;5055003;28;20283;-68
2020/12/30 11:49:14;;;;;;;;;;;;;;;;;;5068854;28;19926;-69
2020/12/30 11:51:40;;;;;;;;;;;;;;;;;;5047059;28;19961;-69
2020/12/30 11:54:06;;;;;;;;;;;;;;;;;;5048161;28;19913;-69
2020/12/30 11:56:32;;;;;;;;;;;;;;;;;;5066131;28;19912;-68
2020/12/30 11:58:58;;;;;;;;;;;;;;;;;;5065033;28;20026;-69
2020/12/30 12:01:24;;;;;;;;;;;;;;;;;;5047373;28;19913;-68
2020/12/30 12:03:50;;;;;;;;;;;;;;;;;;5048054;28;19915;-68
2020/12/30 12:06:16;;;;;;;;;;;;;;;;;;5065088;28;20349;-68
2020/12/30 12:08:42;;;;;;;;;;;;;;;;;;5067508;28;19958;-68
2020/12/30 12:11:08;;;;;;;;;;;;;;;;;;5073219;28;20581;-68
2020/12/30 12:13:34;;;;;;;;;;;;;;;;;;5047687;28;19966;-68
2020/12/30 12:16:00;;;;;;;;;;;;;;;;;;5068214;28;19975;-68
2020/12/30 12:18:26;;;;;;;;;;;;;;;;;;5072688;28;19952;-69
2020/12/30 12:20:52;;;;;;;;;;;;;;;;;;5065295;28;19951;-68
2020/12/30 12:23:17;;;;;;;;;;;;;;;;;;5069410;28;20375;-68
2020/12/30 12:25:43;;;;;;;;;;;;;;;;;;5065363;28;19959;-68
2020/12/30 12:28:09;;;;;;;;;;;;;;;;;;5052154;28;20003;-69
2020/12/30 12:30:35;;;;;;;;;;;;;;;;;;5071316;28;20360;-69
2020/12/30 12:33:01;;;;;;;;;;;;;;;;;;5054460;28;19912;-70
2020/12/30 12:35:27;;;;;;;;;;;;;;;;;;5070243;28;20391;-68
2020/12/30 12:37:53;;;;;;;;;;;;;;;;;;5072301;28;19912;-68
2020/12/30 12:40:19;;;;;;;;;;;;;;;;;;5053156;28;19908;-70
2020/12/30 12:42:45;;;;;;;;;;;;;;;;;;5072025;28;19962;-69
2020/12/30 12:45:11;;;;;;;;;;;;;;;;;;5056803;28;19936;-70
2020/12/30 12:47:37;;;;;;;;;;;;;;;;;;5053166;28;19948;-70
2020/12/30 12:50:03;;;;;;;;;;;;;;;;;;5072013;28;19923;-69
2020/12/30 12:52:29;;;;;;;;;;;;;;;;;;5052590;28;19955;-70
2020/12/30 12:54:54;;;;;;;;;;;;;;;;;;5054177;28;20089;-69
2020/12/30 12:57:20;;;;;;;;;;;;;;;;;;5053980;28;20356;-67
2020/12/30 12:59:46;;;;;;;;;;;;;;;;;;5072008;28;20001;-69
2020/12/30 13:02:12;;;;;;;;;;;;;;;;;;5072085;28;19915;-69
2020/12/30 13:04:38;;;;;;;;;;;;;;;;;;5068731;28;20390;-69
2020/12/30 13:07:04;;;;;;;;;;;;;;;;;;5068605;28;19920;-69
2020/12/30 13:09:30;;;;;;;;;;;;;;;;;;5074100;28;19932;-68
2020/12/30 13:11:56;;;;;;;;;;;;;;;;;;5056800;28;19948;-69
2020/12/30 13:14:22;;;;;;;;;;;;;;;;;;5071772;28;19959;-70
2020/12/30 13:16:48;;;;;;;;;;;;;;;;;;5065228;28;19940;-68
2020/12/30 13:19:14;;;;;;;;;;;;;;;;;;5071496;28;19977;-68
2020/12/30 13:21:40;;;;;;;;;;;;;;;;;;5071719;28;19920;-69
2020/12/30 13:24:06;;;;;;;;;;;;;;;;;;5053594;28;19914;-68
2020/12/30 13:26:32;;;;;;;;;;;;;;;;;;5071828;28;19930;-72
2020/12/30 13:28:57;;;;;;;;;;;;;;;;;;5053627;28;20057;-71
2020/12/30 13:31:23;;;;;;;;;;;;;;;;;;5071524;28;19912;-71
2020/12/30 13:33:49;;;;;;;;;;;;;;;;;;5071562;28;20356;-71
2020/12/30 13:36:15;;;;;;;;;;;;;;;;;;5071184;28;19951;-70
2020/12/30 13:38:41;;;;;;;;;;;;;;;;;;5071275;28;19954;-68
2020/12/30 13:41:07;;;;;;;;;;;;;;;;;;5078793;28;20356;-71
2020/12/30 13:43:33;;;;;;;;;;;;;;;;;;5074723;28;20003;-70
2020/12/30 13:45:59;;;;;;;;;;;;;;;;;;5057782;28;19912;-70
2020/12/30 13:48:25;;;;;;;;;;;;;;;;;;5077477;28;19908;-70
2020/12/30 13:50:50;;;;;;;;;;;;;;;;;;5071082;28;20011;-70
2020/12/30 13:53:16;;;;;;;;;;;;;;;;;;5071351;28;20026;-70
2020/12/30 13:55:42;;;;;;;;;;;;;;;;;;5070719;28;20046;-71
2020/12/30 13:58:08;;;;;;;;;;;;;;;;;;5071137;28;19995;-70
2020/12/30 14:00:34;;;;;;;;;;;;;;;;;;5071092;28;19908;-70
2020/12/30 14:03:00;;;;;;;;;;;;;;;;;;5053579;28;19932;-71
2020/12/30 14:05:26;;;;;;;;;;;;;;;;;;5071169;28;19908;-70
2020/12/30 14:07:52;;;;;;;;;;;;;;;;;;5070517;28;19909;-69
2020/12/30 14:10:18;;;;;;;;;;;;;;;;;;5081532;28;19956;-71
2020/12/30 14:12:44;;;;;;;;;;;;;;;;;;5052713;28;19944;-71
2020/12/30 14:15:10;;;;;;;;;;;;;;;;;;5071059;28;19947;-70
2020/12/30 14:17:36;;;;;;;;;;;;;;;;;;5052773;28;20004;-70
2020/12/30 14:20:01;;;;;;;;;;;;;;;;;;5070729;28;19916;-70
2020/12/30 14:22:27;;;;;;;;;;;;;;;;;;5070495;28;19931;-68
2020/12/30 14:24:53;;;;;;;;;;;;;;;;;;5070754;28;19955;-70
2020/12/30 14:27:19;;;;;;;;;;;;;;;;;;5070904;28;19931;-70
2020/12/30 14:29:45;;;;;;;;;;;;;;;;;;5090467;28;20003;-70
2020/12/30 14:32:11;;;;;;;;;;;;;;;;;;5090469;28;19915;-70
2020/12/30 14:34:37;;;;;;;;;;;;;;;;;;5078930;28;19916;-69
2020/12/30 14:37:03;;;;;;;;;;;;;;;;;;5070714;28;19912;-70
2020/12/30 14:39:29;;;;;;;;;;;;;;;;;;5078337;28;19908;-70
2020/12/30 14:41:55;;;;;;;;;;;;;;;;;;5070472;28;19952;-70
2020/12/30 14:44:21;;;;;;;;;;;;;;;;;;5070324;28;19999;-70
2020/12/30 14:46:46;;;;;;;;;;;;;;;;;;5069998;28;20011;-70
2020/12/30 14:49:12;;;;;;;;;;;;;;;;;;5051846;28;19951;-70
2020/12/30 14:51:38;;;;;;;;;;;;;;;;;;5070044;28;20564;-70
2020/12/30 14:54:04;;;;;;;;;;;;;;;;;;5070052;28;19920;-70
2020/12/30 14:56:30;;;;;;;;;;;;;;;;;;5067755;28;19955;-70
2020/12/30 14:58:56;;;;;;;;;;;;;;;;;;5070298;28;20359;-70
2020/12/30 15:01:23;;;;;;;;;;;;;;;;;;5070269;28;20344;-70
2020/12/30 15:03:49;;;;;;;;;;;;;;;;;;5069988;28;19914;-70
2020/12/30 15:06:15;;;;;;;;;;;;;;;;;;5068828;28;19908;-70
2020/12/30 15:08:41;;;;;;;;;;;;;;;;;;5071148;28;19915;-70
2020/12/30 15:11:07;;;;;;;;;;;;;;;;;;5052722;28;20012;-69
2020/12/30 15:13:33;;;;;;;;;;;;;;;;;;5052258;28;20010;-69
2020/12/30 15:15:59;;;;;;;;;;;;;;;;;;5069675;28;19909;-70
2020/12/30 15:18:25;;;;;;;;;;;;;;;;;;5052213;28;19964;-70
2020/12/30 15:20:51;;;;;;;;;;;;;;;;;;5052433;28;19959;-70
2020/12/30 15:23:17;;;;;;;;;;;;;;;;;;5070048;28;19995;-69
2020/12/30 15:25:42;;;;;;;;;;;;;;;;;;5044683;28;19923;-70
2020/12/30 15:28:08;;;;;;;;;;;;;;;;;;5062781;28;20386;-69
2020/12/30 15:30:34;;;;;;;;;;;;;;;;;;5041211;28;20427;-70
2020/12/30 15:33:00;;;;;;;;;;;;;;;;;;5053843;28;20065;-70
2020/12/30 15:35:26;;;;;;;;;;;;;;;;;;5053707;28;20039;-70
2020/12/30 15:37:53;;;;;;;;;;;;;;;;;;5075584;28;20394;-70
2020/12/30 15:40:19;;;;;;;;;;;;;;;;;;5085628;28;19908;-70
2020/12/30 15:42:45;;;;;;;;;;;;;;;;;;5079056;28;19952;-71
2020/12/30 15:45:11;;;;;;;;;;;;;;;;;;5046104;28;19987;-69
2020/12/30 15:47:37;;;;;;;;;;;;;;;;;;5066432;28;20376;-71
2020/12/30 15:50:03;;;;;;;;;;;;;;;;;;5070439;28;19960;-71
2020/12/30 15:52:28;;;;;;;;;;;;;;;;;;5073632;28;19991;-70
2020/12/30 15:54:54;;;;;;;;;;;;;;;;;;5073485;28;20000;-69
2020/12/30 15:57:22;;;;;;;;;;;;;;;;;;5073044;28;19908;-70
2020/12/30 15:59:48;;;;;;;;;;;;;;;;;;5072458;28;19978;-71
2020/12/30 16:02:14;;;;;;;;;;;;;;;;;;5073467;28;20403;-69
2020/12/30 16:04:40;;;;;;;;;;;;;;;;;;5073433;28;19917;-70
2020/12/30 16:07:06;;;;;;;;;;;;;;;;;;5073321;28;19908;-70
2020/12/30 16:09:31;;;;;;;;;;;;;;;;;;5073214;28;19966;-70
2020/12/30 16:11:57;;;;;;;;;;;;;;;;;;5072931;28;20425;-70
2020/12/30 16:14:23;;;;;;;;;;;;;;;;;;5083561;28;20050;-71
2020/12/30 16:16:49;;;;;;;;;;;;;;;;;;5066717;28;19915;-70
2020/12/30 16:19:15;;;;;;;;;;;;;;;;;;5093249;28;19914;-70
2020/12/30 16:21:41;;;;;;;;;;;;;;;;;;5075215;28;19995;-70
2020/12/30 16:24:07;;;;;;;;;;;;;;;;;;5075215;28;19998;-70
2020/12/30 16:26:33;;;;;;;;;;;;;;;;;;5075068;28;20438;-70
2020/12/30 16:28:58;;;;;;;;;;;;;;;;;;5055341;28;19916;-70
2020/12/30 16:31:24;;;;;;;;;;;;;;;;;;5052582;28;19909;-70
2020/12/30 16:33:50;;;;;;;;;;;;;;;;;;5035008;28;19913;-70
2020/12/30 16:36:16;;;;;;;;;;;;;;;;;;5052366;28;19969;-71